createdAt,value
2023-01-09T00:01:46.065Z,6.70
2023-01-09T00:04:14.394Z,6.70
2023-01-09T00:06:43.670Z,6.70
2023-01-09T00:09:11.469Z,6.70
2023-01-09T00:11:39.105Z,6.80
2023-01-09T00:14:06.780Z,6.80
2023-01-09T00:16:34.510Z,6.80
2023-01-09T00:19:02.200Z,6.80
2023-01-09T00:21:30.074Z,6.80
2023-01-09T00:23:57.737Z,6.80
2023-01-09T00:26:25.429Z,6.90
2023-01-09T00:28:54.233Z,6.90
2023-01-09T00:31:22.556Z,6.90
2023-01-09T00:34:00.261Z,6.90
2023-01-09T00:36:28.350Z,6.90
2023-01-09T00:38:56.099Z,6.90
2023-01-09T00:41:25.842Z,6.80
2023-01-09T00:44:01.244Z,6.80
2023-01-09T00:46:39.389Z,6.80
2023-01-09T00:49:09.701Z,6.80
2023-01-09T00:51:38.840Z,6.80
2023-01-09T00:54:06.822Z,6.80
2023-01-09T00:56:36.222Z,6.80
2023-01-09T00:59:05.059Z,6.80
2023-01-09T01:01:32.752Z,6.80
2023-01-09T01:04:20.372Z,6.70
2023-01-09T01:07:06.359Z,6.80
2023-01-09T01:09:34.105Z,6.80
2023-01-09T01:12:07.175Z,6.80
2023-01-09T01:14:37.141Z,6.80
2023-01-09T01:17:05.854Z,6.80
2023-01-09T01:19:35.569Z,6.80
2023-01-09T01:22:03.560Z,6.80
2023-01-09T01:24:31.491Z,6.70
2023-01-09T01:26:59.159Z,6.70
2023-01-09T01:29:27.090Z,6.70
2023-01-09T01:31:54.947Z,6.70
2023-01-09T01:34:22.657Z,6.80
2023-01-09T01:36:50.304Z,6.80
2023-01-09T01:39:18.013Z,6.80
2023-01-09T01:41:45.739Z,6.80
2023-01-09T01:44:50.845Z,6.80
2023-01-09T01:47:20.985Z,6.80
2023-01-09T01:49:49.261Z,6.80
2023-01-09T01:52:19.427Z,6.80
2023-01-09T01:54:47.591Z,6.80
2023-01-09T01:57:15.564Z,6.80
2023-01-09T01:59:50.402Z,6.90
2023-01-09T02:02:21.226Z,6.80
2023-01-09T02:04:52.020Z,6.80
2023-01-09T02:07:19.842Z,6.80
2023-01-09T02:09:47.457Z,6.80
2023-01-09T02:12:23.890Z,6.80
2023-01-09T02:15:00.757Z,6.80
2023-01-09T02:18:02.309Z,6.80
2023-01-09T02:20:46.197Z,6.70
2023-01-09T02:23:25.833Z,6.70
2023-01-09T02:26:12.201Z,6.70
2023-01-09T02:29:24.574Z,6.70
2023-01-09T02:32:04.475Z,6.70
2023-01-09T02:34:34.836Z,6.70
2023-01-09T02:37:26.802Z,6.70
2023-01-09T02:40:09.548Z,6.60
2023-01-09T02:42:39.887Z,6.50
2023-01-09T02:45:07.672Z,6.50
2023-01-09T02:47:42.417Z,6.40
2023-01-09T02:50:19.255Z,6.30
2023-01-09T02:52:52.655Z,6.30
2023-01-09T02:55:22.676Z,6.20
2023-01-09T02:58:46.959Z,6.20
2023-01-09T03:01:38.462Z,6.10
2023-01-09T03:04:21.852Z,6.00
2023-01-09T03:06:58.844Z,6.00
2023-01-09T03:09:31.986Z,6.00
2023-01-09T03:12:07.556Z,5.90
2023-01-09T03:14:37.800Z,5.90
2023-01-09T03:17:10.401Z,5.80
2023-01-09T03:19:38.537Z,5.80
2023-01-09T03:22:08.348Z,5.80
2023-01-09T03:24:36.002Z,5.80
2023-01-09T03:27:03.618Z,5.70
2023-01-09T03:29:32.129Z,5.70
2023-01-09T03:31:59.884Z,5.70
2023-01-09T03:34:27.571Z,5.60
2023-01-09T03:36:55.395Z,5.60
2023-01-09T03:39:22.988Z,5.60
2023-01-09T03:41:50.654Z,5.50
2023-01-09T03:44:18.380Z,5.50
2023-01-09T03:46:46.200Z,5.50
2023-01-09T03:49:14.097Z,5.50
2023-01-09T03:51:41.756Z,5.40
2023-01-09T03:54:09.407Z,5.40
2023-01-09T03:56:37.019Z,5.40
2023-01-09T03:59:04.612Z,5.40
2023-01-09T04:01:32.483Z,5.40
2023-01-09T04:04:00.284Z,5.30
2023-01-09T04:06:28.122Z,5.30
2023-01-09T04:08:55.762Z,5.30
2023-01-09T04:11:23.434Z,5.30
2023-01-09T04:13:51.080Z,5.30
2023-01-09T04:16:18.834Z,5.30
2023-01-09T04:18:50.264Z,5.30
2023-01-09T04:21:27.541Z,5.30
2023-01-09T04:27:00.258Z,5.20
2023-01-09T04:29:46.473Z,5.20
2023-01-09T04:32:19.694Z,5.20
2023-01-09T04:37:47.119Z,5.20
2023-01-09T04:40:22.566Z,5.20
2023-01-09T04:43:14.028Z,5.20
2023-01-09T04:48:55.959Z,5.20
2023-01-09T04:51:34.829Z,5.20
2023-01-09T04:54:15.811Z,5.20
2023-01-09T04:56:52.216Z,5.30
2023-01-09T04:59:31.259Z,5.30
2023-01-09T05:02:41.820Z,5.30
2023-01-09T05:08:59.942Z,5.30
2023-01-09T05:12:05.875Z,5.30
2023-01-09T05:15:12.124Z,5.30
2023-01-09T05:17:48.153Z,5.30
2023-01-09T05:20:52.392Z,5.30
2023-01-09T05:23:21.454Z,5.30
2023-01-09T05:25:50.756Z,5.30
2023-01-09T05:28:22.522Z,5.20
2023-01-09T05:30:51.407Z,5.30
2023-01-09T05:33:19.281Z,5.20
2023-01-09T05:35:49.071Z,5.20
2023-01-09T05:38:19.597Z,5.20
2023-01-09T05:40:50.292Z,5.20
2023-01-09T05:43:26.976Z,5.20
2023-01-09T05:45:54.720Z,5.20
2023-01-09T05:48:24.201Z,5.30
2023-01-09T05:50:58.634Z,5.20
2023-01-09T05:53:28.738Z,5.20
2023-01-09T05:56:00.660Z,5.20
2023-01-09T05:58:28.739Z,5.20
2023-01-09T06:00:58.377Z,5.20
2023-01-09T06:03:26.299Z,5.20
2023-01-09T06:05:54.096Z,5.20
2023-01-09T06:08:23.701Z,5.20
2023-01-09T06:10:52.879Z,5.20
2023-01-09T06:13:31.012Z,5.20
2023-01-09T06:15:59.326Z,5.10
2023-01-09T06:18:30.204Z,5.10
2023-01-09T06:20:59.471Z,5.10
2023-01-09T06:23:27.173Z,5.10
2023-01-09T06:25:58.797Z,5.20
2023-01-09T06:28:26.427Z,5.20
2023-01-09T06:31:09.233Z,5.20
2023-01-09T06:33:39.967Z,5.20
2023-01-09T06:36:08.126Z,5.20
2023-01-09T06:38:53.365Z,5.20
2023-01-09T06:41:23.646Z,5.30
2023-01-09T06:43:51.826Z,5.30
2023-01-09T06:46:21.190Z,5.20
2023-01-09T06:48:59.701Z,5.30
2023-01-09T06:51:34.778Z,5.20
2023-01-09T06:56:49.960Z,5.30
2023-01-09T06:59:17.622Z,5.30
2023-01-09T07:01:57.480Z,5.30
2023-01-09T07:04:31.410Z,5.30
2023-01-09T07:06:59.129Z,5.30
2023-01-09T07:09:27.694Z,5.30
2023-01-09T07:11:55.604Z,5.30
2023-01-09T07:14:34.837Z,5.30
2023-01-09T07:17:05.491Z,5.30
2023-01-09T07:19:33.909Z,5.30
2023-01-09T07:22:04.604Z,5.30
2023-01-09T07:24:32.263Z,5.30
2023-01-09T07:27:03.661Z,5.30
2023-01-09T07:29:31.775Z,5.20
2023-01-09T07:32:01.429Z,5.30
2023-01-09T07:34:34.941Z,5.30
2023-01-09T07:37:05.208Z,5.30
2023-01-09T07:39:33.944Z,5.30
2023-01-09T07:42:04.688Z,5.30
2023-01-09T07:44:33.384Z,5.20
2023-01-09T07:47:11.184Z,5.30
2023-01-09T07:49:42.943Z,5.20
2023-01-09T07:52:10.632Z,5.30
2023-01-09T07:54:50.838Z,5.30
2023-01-09T07:57:21.711Z,5.20
2023-01-09T07:59:55.438Z,5.20
2023-01-09T08:02:29.911Z,5.20
2023-01-09T08:04:59.109Z,5.20
2023-01-09T08:07:27.683Z,5.20
2023-01-09T08:10:07.043Z,5.20
2023-01-09T08:12:37.336Z,5.20
2023-01-09T08:15:13.147Z,5.20
2023-01-09T08:17:49.889Z,5.10
2023-01-09T08:20:39.837Z,5.10
2023-01-09T08:23:09.116Z,5.20
2023-01-09T08:26:05.888Z,5.20
2023-01-09T08:28:37.319Z,5.20
2023-01-09T08:31:10.143Z,5.20
2023-01-09T08:33:43.554Z,5.20
2023-01-09T08:38:53.262Z,5.20
2023-01-09T08:41:39.780Z,5.30
2023-01-09T08:44:27.046Z,5.30
2023-01-09T08:47:07.799Z,5.30
2023-01-09T08:49:44.951Z,5.30
2023-01-09T08:52:23.070Z,5.30
2023-01-09T08:54:53.282Z,5.30
2023-01-09T08:57:36.504Z,5.30
2023-01-09T09:00:15.285Z,5.40
2023-01-09T09:02:48.161Z,5.40
2023-01-09T09:05:26.953Z,5.50
2023-01-09T09:07:56.718Z,5.50
2023-01-09T09:10:29.951Z,5.60
2023-01-09T09:13:03.112Z,5.80
2023-01-09T09:15:42.085Z,5.90
2023-01-09T09:18:26.830Z,6.10
2023-01-09T09:21:11.377Z,6.30
2023-01-09T09:23:53.419Z,6.40
2023-01-09T09:26:27.115Z,6.50
2023-01-09T09:29:02.085Z,6.60
2023-01-09T09:31:34.073Z,6.60
2023-01-09T09:34:05.144Z,6.60
2023-01-09T09:36:35.805Z,6.60
2023-01-09T09:39:11.848Z,6.70
2023-01-09T09:42:38.285Z,6.70
2023-01-09T09:45:24.886Z,6.70
2023-01-09T09:48:06.718Z,6.80
2023-01-09T09:51:02.890Z,6.90
2023-01-09T09:53:40.451Z,6.90
2023-01-09T09:56:16.229Z,7.10
2023-01-09T09:58:50.831Z,7.10
2023-01-09T10:01:49.413Z,7.10
2023-01-09T10:04:20.387Z,7.10
2023-01-09T10:06:57.767Z,7.20
2023-01-09T10:09:49.295Z,7.20
2023-01-09T10:12:48.024Z,7.30
2023-01-09T10:15:50.248Z,7.40
2023-01-09T10:18:40.960Z,7.50
2023-01-09T10:21:39.676Z,7.60
2023-01-09T10:24:31.857Z,7.70
2023-01-09T10:27:38.166Z,7.70
2023-01-09T10:30:30.258Z,7.70
2023-01-09T10:33:32.124Z,7.70
2023-01-09T10:36:29.895Z,7.80
2023-01-09T10:39:24.418Z,7.90
2023-01-09T10:42:35.337Z,8.00
2023-01-09T10:45:29.946Z,8.10
2023-01-09T10:48:05.564Z,8.10
2023-01-09T10:51:00.019Z,8.10
2023-01-09T10:53:39.889Z,8.10
2023-01-09T10:56:29.800Z,8.20
2023-01-09T10:59:01.802Z,8.20
2023-01-09T11:01:38.706Z,8.20
2023-01-09T11:04:44.394Z,8.30
2023-01-09T11:07:25.416Z,8.30
2023-01-09T11:10:18.622Z,8.30
2023-01-09T11:12:57.510Z,8.30
2023-01-09T11:15:32.533Z,8.30
2023-01-09T11:18:26.956Z,8.30
2023-01-09T11:20:55.346Z,8.50
2023-01-09T11:23:38.232Z,8.70
2023-01-09T11:26:31.434Z,9.00
2023-01-09T11:29:23.758Z,9.60
2023-01-09T11:32:00.716Z,10.30
2023-01-09T11:34:48.156Z,10.90
2023-01-09T11:38:13.641Z,11.60
2023-01-09T11:41:09.314Z,12.20
2023-01-09T11:43:39.794Z,12.40
2023-01-09T11:46:34.064Z,12.30
2023-01-09T11:49:45.715Z,11.90
2023-01-09T11:52:25.415Z,11.40
2023-01-09T11:54:58.982Z,11.00
2023-01-09T11:57:38.933Z,10.80
2023-01-09T12:00:30.847Z,10.60
2023-01-09T12:03:15.745Z,10.50
2023-01-09T12:06:10.741Z,10.30
2023-01-09T12:09:03.686Z,10.20
2023-01-09T12:12:05.119Z,10.00
2023-01-09T12:15:15.827Z,9.80
2023-01-09T12:18:04.480Z,9.60
2023-01-09T12:24:16.589Z,9.30
2023-01-09T12:27:12.248Z,9.20
2023-01-09T12:30:07.463Z,9.30
2023-01-09T12:38:52.837Z,9.40
2023-01-09T12:41:26.112Z,9.50
2023-01-09T12:47:30.798Z,9.40
2023-01-09T12:50:24.212Z,9.40
2023-01-09T12:52:52.458Z,9.50
2023-01-09T12:55:30.139Z,9.70
2023-01-09T13:03:41.264Z,10.60
2023-01-09T13:06:16.742Z,11.70
2023-01-09T13:08:55.832Z,11.80
2023-01-09T13:12:09.013Z,11.70
2023-01-09T13:15:09.779Z,11.30
2023-01-09T13:18:04.905Z,10.90
2023-01-09T13:21:05.970Z,10.60
2023-01-09T13:24:10.653Z,10.40
2023-01-09T13:26:42.688Z,10.20
2023-01-09T13:29:22.080Z,10.00
2023-01-09T13:32:26.644Z,9.80
2023-01-09T13:35:01.475Z,9.60
2023-01-09T13:37:37.226Z,9.50
2023-01-09T13:40:38.575Z,9.30
2023-01-09T13:44:03.511Z,9.30
2023-01-09T13:46:45.111Z,9.20
2023-01-09T13:49:42.114Z,9.20
2023-01-09T13:52:45.637Z,9.20
2023-01-09T13:55:23.927Z,9.20
2023-01-09T13:58:15.192Z,9.30
2023-01-09T14:00:51.099Z,9.30
2023-01-09T14:03:31.727Z,9.40
2023-01-09T14:05:59.496Z,9.40
2023-01-09T14:08:29.584Z,9.50
2023-01-09T14:11:01.696Z,9.60
2023-01-09T14:13:43.566Z,9.60
2023-01-09T14:16:34.847Z,9.70
2023-01-09T14:19:22.270Z,9.70
2023-01-09T14:21:56.223Z,9.70
2023-01-09T14:24:46.726Z,9.60
2023-01-09T14:27:52.927Z,9.60
2023-01-09T14:30:26.925Z,9.40
2023-01-09T14:33:19.202Z,9.40
2023-01-09T14:36:24.115Z,9.20
2023-01-09T14:39:25.011Z,9.10
2023-01-09T14:42:30.110Z,8.90
2023-01-09T14:51:49.552Z,8.60
2023-01-09T14:54:37.986Z,8.50
2023-01-09T14:57:24.490Z,8.50
2023-01-09T15:00:05.166Z,8.40
2023-01-09T15:02:37.716Z,8.40
2023-01-09T15:05:12.300Z,8.30
2023-01-09T15:07:46.474Z,8.30
2023-01-09T15:10:20.989Z,8.30
2023-01-09T15:12:51.721Z,8.40
2023-01-09T15:15:20.203Z,8.40
2023-01-09T15:17:55.905Z,8.40
2023-01-09T15:20:27.455Z,8.50
2023-01-09T15:22:58.023Z,8.40
2023-01-09T15:25:38.828Z,8.40
2023-01-09T15:28:27.716Z,8.30
2023-01-09T15:31:17.947Z,8.20
2023-01-09T15:33:53.080Z,8.10
2023-01-09T15:36:34.904Z,8.00
2023-01-09T15:39:31.478Z,7.90
2023-01-09T15:42:22.899Z,7.60
2023-01-09T15:44:53.894Z,7.70
2023-01-09T15:47:29.420Z,7.60
2023-01-09T15:49:57.861Z,7.50
2023-01-09T15:52:26.521Z,7.40
2023-01-09T15:54:54.364Z,7.30
2023-01-09T15:57:25.899Z,7.30
2023-01-09T16:00:16.135Z,7.20
2023-01-09T16:03:03.741Z,7.20
2023-01-09T16:05:33.445Z,7.10
2023-01-09T16:08:02.311Z,7.00
2023-01-09T16:10:36.400Z,6.90
2023-01-09T16:13:07.181Z,6.90
2023-01-09T16:15:35.365Z,6.90
2023-01-09T16:18:17.955Z,6.90
2023-01-09T16:20:46.042Z,6.90
2023-01-09T16:23:30.019Z,6.90
2023-01-09T16:26:33.373Z,6.90
2023-01-09T16:29:40.036Z,7.00
2023-01-09T16:32:19.047Z,7.10
2023-01-09T16:34:55.035Z,7.20
2023-01-09T16:37:24.268Z,7.30
2023-01-09T16:40:14.172Z,7.30
2023-01-09T16:43:02.810Z,7.40
2023-01-09T16:45:46.079Z,7.30
2023-01-09T16:48:21.257Z,7.30
2023-01-09T16:50:49.375Z,7.30
2023-01-09T16:53:27.309Z,7.20
2023-01-09T16:56:16.500Z,7.20
2023-01-09T16:58:48.223Z,7.20
2023-01-09T17:01:16.524Z,7.20
2023-01-09T17:03:44.579Z,7.20
2023-01-09T17:06:22.667Z,7.20
2023-01-09T17:08:51.647Z,7.20
2023-01-09T17:11:22.368Z,7.20
2023-01-09T17:13:50.852Z,7.20
2023-01-09T17:16:19.600Z,7.10
2023-01-09T17:18:47.333Z,7.20
2023-01-09T17:21:21.561Z,7.10
2023-01-09T17:24:09.805Z,7.00
2023-01-09T17:26:59.900Z,7.00
2023-01-09T17:29:28.575Z,6.90
2023-01-09T17:31:57.328Z,6.80
2023-01-09T17:34:25.080Z,6.80
2023-01-09T17:36:55.668Z,6.80
2023-01-09T17:39:23.787Z,6.80
2023-01-09T17:41:51.384Z,6.90
2023-01-09T17:44:19.031Z,6.80
2023-01-09T17:46:46.873Z,6.80
2023-01-09T17:49:17.452Z,6.80
2023-01-09T17:51:45.570Z,6.80
2023-01-09T17:54:14.014Z,6.70
2023-01-09T17:56:45.427Z,6.70
2023-01-09T17:59:14.852Z,6.70
2023-01-09T18:01:44.121Z,6.60
2023-01-09T18:04:12.073Z,6.60
2023-01-09T18:06:42.206Z,6.60
2023-01-09T18:09:15.758Z,6.60
2023-01-09T18:11:44.707Z,6.60
2023-01-09T18:14:13.824Z,6.50
2023-01-09T18:16:42.364Z,6.50
2023-01-09T18:19:11.413Z,6.50
2023-01-09T18:21:52.569Z,6.40
2023-01-09T18:24:20.389Z,6.40
2023-01-09T18:26:48.026Z,6.40
2023-01-09T18:29:15.687Z,6.40
2023-01-09T18:31:43.493Z,6.30
2023-01-09T18:34:11.323Z,6.30
2023-01-09T18:36:38.987Z,6.30
2023-01-09T18:39:21.419Z,6.30
2023-01-09T18:41:52.277Z,6.20
2023-01-09T18:44:57.048Z,6.20
2023-01-09T18:47:37.241Z,6.20
2023-01-09T18:50:08.194Z,6.10
2023-01-09T18:52:35.888Z,6.10
2023-01-09T18:55:06.277Z,6.10
2023-01-09T18:57:42.563Z,6.00
2023-01-09T19:00:11.711Z,6.00
2023-01-09T19:02:39.581Z,6.00
2023-01-09T19:05:07.464Z,5.90
2023-01-09T19:07:35.178Z,5.90
2023-01-09T19:10:02.831Z,5.80
2023-01-09T19:12:30.569Z,5.80
2023-01-09T19:14:58.389Z,5.80
2023-01-09T19:17:30.779Z,5.80
2023-01-09T19:20:13.114Z,5.80
2023-01-09T19:23:01.506Z,5.80
2023-01-09T19:26:08.935Z,5.70
2023-01-09T19:28:38.978Z,5.70
2023-01-09T19:31:06.687Z,5.70
2023-01-09T19:33:34.355Z,5.60
2023-01-09T19:36:02.099Z,5.60
2023-01-09T19:38:29.969Z,5.60
2023-01-09T19:40:57.846Z,5.60
2023-01-09T19:43:28.528Z,5.60
2023-01-09T19:45:56.491Z,5.60
2023-01-09T19:48:27.117Z,5.60
2023-01-09T19:51:02.205Z,5.60
2023-01-09T19:53:30.908Z,5.60
2023-01-09T19:56:14.854Z,5.60
2023-01-09T19:58:47.452Z,5.60
2023-01-09T20:01:18.678Z,5.60
2023-01-09T20:03:50.913Z,5.60
2023-01-09T20:06:24.159Z,5.60
2023-01-09T20:08:54.842Z,5.60
2023-01-09T20:11:23.630Z,5.60
2023-01-09T20:13:51.228Z,5.60
2023-01-09T20:16:28.175Z,5.60
2023-01-09T20:19:00.935Z,5.60
2023-01-09T20:21:30.243Z,5.50
2023-01-09T20:24:00.568Z,5.50
2023-01-09T20:26:29.416Z,5.50
2023-01-09T20:28:58.364Z,5.50
2023-01-09T20:31:28.413Z,5.50
2023-01-09T20:33:56.756Z,5.50
2023-01-09T20:36:31.892Z,5.50
2023-01-09T20:39:02.741Z,5.50
2023-01-09T20:41:31.521Z,5.50
2023-01-09T20:43:59.205Z,5.60
2023-01-09T20:46:33.677Z,5.50
2023-01-09T20:49:06.566Z,5.50
2023-01-09T20:51:36.251Z,5.50
2023-01-09T20:54:04.159Z,5.50
2023-01-09T20:56:36.171Z,5.50
2023-01-09T20:59:12.640Z,5.50
2023-01-09T21:01:46.398Z,5.50
2023-01-09T21:04:14.312Z,5.50
2023-01-09T21:06:43.565Z,5.50
2023-01-09T21:09:11.405Z,5.50
2023-01-09T21:11:39.045Z,5.50
2023-01-09T21:14:06.943Z,5.50
2023-01-09T21:16:34.691Z,5.50
2023-01-09T21:19:02.387Z,5.50
2023-01-09T21:21:35.674Z,5.50
2023-01-09T21:24:04.675Z,5.40
2023-01-09T21:26:32.409Z,5.40
2023-01-09T21:29:01.583Z,5.40
2023-01-09T21:31:34.617Z,5.50
2023-01-09T21:34:05.068Z,5.50
2023-01-09T21:36:33.038Z,5.50
2023-01-09T21:39:44.612Z,5.40
2023-01-09T21:42:30.739Z,5.50
2023-01-09T21:45:16.754Z,5.40
2023-01-09T21:47:44.375Z,5.40
2023-01-09T21:50:18.053Z,5.40
2023-01-09T21:52:48.791Z,5.40
2023-01-09T21:55:16.551Z,5.40
2023-01-09T21:57:56.691Z,5.40
2023-01-09T22:00:36.523Z,5.40
2023-01-09T22:03:37.710Z,5.40
2023-01-09T22:06:24.968Z,5.40
2023-01-09T22:08:57.881Z,5.40
2023-01-09T22:11:45.729Z,5.40
2023-01-09T22:14:25.917Z,5.40
2023-01-09T22:17:08.103Z,5.40
2023-01-09T22:19:43.578Z,5.40
2023-01-09T22:22:17.644Z,5.40
2023-01-09T22:24:54.192Z,5.30
2023-01-09T22:27:38.436Z,5.30
2023-01-09T22:30:29.071Z,5.20
2023-01-09T22:33:49.620Z,5.30
2023-01-09T22:36:28.592Z,5.30
2023-01-09T22:39:01.616Z,5.30
2023-01-09T22:41:41.256Z,5.30
2023-01-09T22:44:13.636Z,5.20
2023-01-09T22:46:46.472Z,5.00
2023-01-09T22:49:18.515Z,5.20
2023-01-09T22:51:52.280Z,5.20
2023-01-09T22:54:29.052Z,5.20
2023-01-09T22:57:04.774Z,5.20
2023-01-09T22:59:32.674Z,5.20
2023-01-09T23:02:13.097Z,5.20
2023-01-09T23:04:41.117Z,5.20
2023-01-09T23:07:22.386Z,5.20
2023-01-09T23:09:53.230Z,5.20
2023-01-09T23:12:28.473Z,5.20
2023-01-09T23:14:58.449Z,5.10
2023-01-09T23:17:26.866Z,5.10
2023-01-09T23:19:57.170Z,5.10
2023-01-09T23:22:29.672Z,5.10
2023-01-09T23:24:58.529Z,5.00
2023-01-09T23:27:26.503Z,5.00
2023-01-09T23:29:55.979Z,5.00
2023-01-09T23:32:23.941Z,4.90
2023-01-09T23:34:51.937Z,4.90
2023-01-09T23:37:22.231Z,4.90
2023-01-09T23:39:55.461Z,4.90
2023-01-09T23:42:49.796Z,4.80
2023-01-09T23:45:17.781Z,4.80
2023-01-09T23:47:45.638Z,4.80
2023-01-09T23:50:13.551Z,4.80
2023-01-09T23:52:41.374Z,4.70
2023-01-09T23:55:11.099Z,4.70
2023-01-09T23:57:39.016Z,4.70
